sensor_id;sensor_type;location;lat;lon;timestamp;pressure;altitude;pressure_sealevel;temperature;humidity
56400;BME280;42298;53.638;9.876;2023-01-27T00:00:22;102210.56;;;13.40;50.01
56400;BME280;42298;53.638;9.876;2023-01-27T00:02:47;102210.78;;;13.20;51.07
56400;BME280;42298;53.638;9.876;2023-01-27T00:05:14;102218.06;;;13.11;51.00
56400;BME280;42298;53.638;9.876;2023-01-27T00:07:40;102223.09;;;13.04;51.36
56400;BME280;42298;53.638;9.876;2023-01-27T00:10:13;102224.41;;;13.40;50.58
56400;BME280;42298;53.638;9.876;2023-01-27T00:12:39;102217.34;;;13.00;50.82
56400;BME280;42298;53.638;9.876;2023-01-27T00:15:23;102215.00;;;13.12;51.05
56400;BME280;42298;53.638;9.876;2023-01-27T00:17:49;102217.22;;;13.10;50.84
56400;BME280;42298;53.638;9.876;2023-01-27T00:20:14;102212.75;;;13.14;50.73
56400;BME280;42298;53.638;9.876;2023-01-27T00:23:00;102225.28;;;13.35;50.82
56400;BME280;42298;53.638;9.876;2023-01-27T00:25:44;102226.22;;;13.26;50.72
56400;BME280;42298;53.638;9.876;2023-01-27T00:28:15;102217.81;;;13.07;51.42
56400;BME280;42298;53.638;9.876;2023-01-27T00:30:50;102231.97;;;13.29;51.23
56400;BME280;42298;53.638;9.876;2023-01-27T00:33:16;102235.47;;;13.11;51.11
56400;BME280;42298;53.638;9.876;2023-01-27T00:36:02;102239.19;;;13.30;50.79
56400;BME280;42298;53.638;9.876;2023-01-27T00:38:30;102245.81;;;13.29;51.04
56400;BME280;42298;53.638;9.876;2023-01-27T00:40:56;102233.38;;;13.27;50.92
56400;BME280;42298;53.638;9.876;2023-01-27T00:43:39;102238.03;;;13.03;51.53
56400;BME280;42298;53.638;9.876;2023-01-27T00:46:05;102243.50;;;13.36;51.49
56400;BME280;42298;53.638;9.876;2023-01-27T00:48:30;102241.53;;;13.13;51.27
56400;BME280;42298;53.638;9.876;2023-01-27T00:50:56;102254.22;;;13.19;51.04
56400;BME280;42298;53.638;9.876;2023-01-27T00:53:21;102242.25;;;13.53;50.61
56400;BME280;42298;53.638;9.876;2023-01-27T00:55:46;102251.31;;;13.34;51.07
56400;BME280;42298;53.638;9.876;2023-01-27T00:58:12;102251.97;;;13.50;51.29
56400;BME280;42298;53.638;9.876;2023-01-27T01:00:38;102251.63;;;13.57;50.88
56400;BME280;42298;53.638;9.876;2023-01-27T01:03:03;102255.09;;;13.67;50.45
56400;BME280;42298;53.638;9.876;2023-01-27T01:05:28;102248.50;;;13.63;50.70
56400;BME280;42298;53.638;9.876;2023-01-27T01:07:54;102249.03;;;13.65;50.86
56400;BME280;42298;53.638;9.876;2023-01-27T01:10:19;102258.28;;;13.56;50.77
56400;BME280;42298;53.638;9.876;2023-01-27T01:12:44;102267.31;;;13.66;50.35
56400;BME280;42298;53.638;9.876;2023-01-27T01:15:10;102264.16;;;13.49;50.86
56400;BME280;42298;53.638;9.876;2023-01-27T01:17:35;102264.69;;;13.51;50.82
56400;BME280;42298;53.638;9.876;2023-01-27T01:20:00;102269.59;;;13.59;50.52
56400;BME280;42298;53.638;9.876;2023-01-27T01:22:26;102270.53;;;13.50;51.40
56400;BME280;42298;53.638;9.876;2023-01-27T01:24:51;102284.44;;;13.68;51.63
56400;BME280;42298;53.638;9.876;2023-01-27T01:27:16;102272.34;;;13.59;50.62
56400;BME280;42298;53.638;9.876;2023-01-27T01:29:42;102277.16;;;13.48;51.13
56400;BME280;42298;53.638;9.876;2023-01-27T01:32:07;102272.56;;;13.39;51.13
56400;BME280;42298;53.638;9.876;2023-01-27T01:34:34;102285.72;;;13.52;50.88
56400;BME280;42298;53.638;9.876;2023-01-27T01:37:00;102283.69;;;13.63;50.99
56400;BME280;42298;53.638;9.876;2023-01-27T01:39:25;102272.41;;;13.54;51.54
56400;BME280;42298;53.638;9.876;2023-01-27T01:41:50;102293.28;;;13.41;51.46
56400;BME280;42298;53.638;9.876;2023-01-27T01:44:28;102293.25;;;13.75;51.22
56400;BME280;42298;53.638;9.876;2023-01-27T01:46:54;102280.81;;;13.44;51.00
56400;BME280;42298;53.638;9.876;2023-01-27T01:49:23;102291.69;;;13.35;51.88
56400;BME280;42298;53.638;9.876;2023-01-27T01:51:54;102291.66;;;13.40;52.22
56400;BME280;42298;53.638;9.876;2023-01-27T01:54:28;102292.53;;;13.36;51.87
56400;BME280;42298;53.638;9.876;2023-01-27T01:57:19;102281.28;;;13.27;52.17
56400;BME280;42298;53.638;9.876;2023-01-27T01:59:49;102279.78;;;13.35;52.41
56400;BME280;42298;53.638;9.876;2023-01-27T02:02:19;102289.00;;;13.30;52.10
56400;BME280;42298;53.638;9.876;2023-01-27T02:04:52;102289.56;;;13.27;52.01
56400;BME280;42298;53.638;9.876;2023-01-27T02:07:24;102294.72;;;13.39;52.22
56400;BME280;42298;53.638;9.876;2023-01-27T02:09:53;102297.22;;;13.35;51.83
56400;BME280;42298;53.638;9.876;2023-01-27T02:12:20;102292.22;;;13.37;51.17
56400;BME280;42298;53.638;9.876;2023-01-27T02:14:45;102296.66;;;13.38;51.51
56400;BME280;42298;53.638;9.876;2023-01-27T02:17:12;102298.34;;;13.63;51.64
56400;BME280;42298;53.638;9.876;2023-01-27T02:22:38;102298.16;;;13.26;51.45
56400;BME280;42298;53.638;9.876;2023-01-27T02:25:17;102298.09;;;13.60;51.19
56400;BME280;42298;53.638;9.876;2023-01-27T02:27:45;102310.91;;;13.51;51.19
56400;BME280;42298;53.638;9.876;2023-01-27T02:30:11;102306.41;;;13.31;51.51
56400;BME280;42298;53.638;9.876;2023-01-27T02:32:36;102315.84;;;13.59;50.74
56400;BME280;42298;53.638;9.876;2023-01-27T02:35:01;102310.97;;;13.45;51.29
56400;BME280;42298;53.638;9.876;2023-01-27T02:37:29;102318.03;;;13.28;51.98
56400;BME280;42298;53.638;9.876;2023-01-27T02:39:56;102320.03;;;13.22;51.61
56400;BME280;42298;53.638;9.876;2023-01-27T02:42:23;102315.53;;;13.31;51.65
56400;BME280;42298;53.638;9.876;2023-01-27T02:44:48;102306.59;;;13.39;51.13
56400;BME280;42298;53.638;9.876;2023-01-27T02:47:14;102307.91;;;13.47;51.28
56400;BME280;42298;53.638;9.876;2023-01-27T02:49:39;102319.25;;;13.45;51.26
56400;BME280;42298;53.638;9.876;2023-01-27T02:52:04;102321.09;;;13.60;50.70
56400;BME280;42298;53.638;9.876;2023-01-27T02:54:30;102327.38;;;13.66;51.41
56400;BME280;42298;53.638;9.876;2023-01-27T02:56:55;102324.16;;;13.82;50.67
56400;BME280;42298;53.638;9.876;2023-01-27T02:59:20;102334.63;;;13.62;50.59
56400;BME280;42298;53.638;9.876;2023-01-27T03:01:46;102337.16;;;13.58;50.51
56400;BME280;42298;53.638;9.876;2023-01-27T03:04:11;102339.03;;;13.63;50.42
56400;BME280;42298;53.638;9.876;2023-01-27T03:06:37;102340.75;;;13.59;50.65
56400;BME280;42298;53.638;9.876;2023-01-27T03:09:04;102333.06;;;13.51;51.10
56400;BME280;42298;53.638;9.876;2023-01-27T03:11:29;102341.09;;;13.18;51.54
56400;BME280;42298;53.638;9.876;2023-01-27T03:14:13;102338.78;;;13.30;51.15
56400;BME280;42298;53.638;9.876;2023-01-27T03:16:39;102351.81;;;13.25;51.48
56400;BME280;42298;53.638;9.876;2023-01-27T03:19:23;102343.06;;;13.47;50.39
56400;BME280;42298;53.638;9.876;2023-01-27T03:21:52;102336.59;;;13.56;50.96
56400;BME280;42298;53.638;9.876;2023-01-27T03:24:18;102347.16;;;13.20;50.74
56400;BME280;42298;53.638;9.876;2023-01-27T03:26:44;102352.47;;;13.12;51.36
56400;BME280;42298;53.638;9.876;2023-01-27T03:29:09;102361.84;;;13.16;51.31
56400;BME280;42298;53.638;9.876;2023-01-27T03:31:53;102352.75;;;13.15;50.84
56400;BME280;42298;53.638;9.876;2023-01-27T03:34:18;102365.13;;;13.23;51.33
56400;BME280;42298;53.638;9.876;2023-01-27T03:36:43;102363.84;;;13.10;51.01
56400;BME280;42298;53.638;9.876;2023-01-27T03:39:28;102371.16;;;13.30;50.52
56400;BME280;42298;53.638;9.876;2023-01-27T03:42:13;102374.41;;;13.37;50.60
56400;BME280;42298;53.638;9.876;2023-01-27T03:44:57;102374.13;;;13.38;50.41
56400;BME280;42298;53.638;9.876;2023-01-27T03:47:40;102383.06;;;13.30;50.84
56400;BME280;42298;53.638;9.876;2023-01-27T03:50:06;102384.66;;;13.36;50.53
56400;BME280;42298;53.638;9.876;2023-01-27T03:52:36;102382.00;;;12.73;51.63
56400;BME280;42298;53.638;9.876;2023-01-27T03:55:01;102383.28;;;13.00;51.17
56400;BME280;42298;53.638;9.876;2023-01-27T03:57:28;102380.28;;;12.82;50.76
56400;BME280;42298;53.638;9.876;2023-01-27T03:59:53;102390.50;;;12.86;50.72
56400;BME280;42298;53.638;9.876;2023-01-27T04:02:18;102390.94;;;12.55;51.74
56400;BME280;42298;53.638;9.876;2023-01-27T04:05:02;102387.19;;;12.84;51.20
56400;BME280;42298;53.638;9.876;2023-01-27T04:07:46;102390.03;;;13.23;50.26
56400;BME280;42298;53.638;9.876;2023-01-27T04:10:11;102395.63;;;12.59;51.30
56400;BME280;42298;53.638;9.876;2023-01-27T04:12:37;102385.56;;;12.78;51.24
56400;BME280;42298;53.638;9.876;2023-01-27T04:15:02;102382.28;;;12.71;51.17
56400;BME280;42298;53.638;9.876;2023-01-27T04:17:27;102393.28;;;12.86;51.35
56400;BME280;42298;53.638;9.876;2023-01-27T04:19:54;102390.38;;;13.11;50.89
56400;BME280;42298;53.638;9.876;2023-01-27T04:22:20;102393.66;;;13.18;50.18
56400;BME280;42298;53.638;9.876;2023-01-27T04:24:45;102407.44;;;13.28;50.02
56400;BME280;42298;53.638;9.876;2023-01-27T04:27:12;102394.38;;;12.85;50.55
56400;BME280;42298;53.638;9.876;2023-01-27T04:29:40;102402.91;;;12.94;50.33
56400;BME280;42298;53.638;9.876;2023-01-27T04:32:08;102401.63;;;12.71;50.62
56400;BME280;42298;53.638;9.876;2023-01-27T04:34:34;102396.69;;;12.63;50.86
56400;BME280;42298;53.638;9.876;2023-01-27T04:37:00;102397.66;;;12.92;50.44
56400;BME280;42298;53.638;9.876;2023-01-27T04:39:27;102402.31;;;13.07;49.90
56400;BME280;42298;53.638;9.876;2023-01-27T04:41:54;102414.78;;;12.99;50.29
56400;BME280;42298;53.638;9.876;2023-01-27T04:44:20;102421.63;;;12.48;51.42
56400;BME280;42298;53.638;9.876;2023-01-27T04:46:45;102408.00;;;12.72;51.12
56400;BME280;42298;53.638;9.876;2023-01-27T04:49:10;102414.19;;;13.07;50.57
56400;BME280;42298;53.638;9.876;2023-01-27T04:51:36;102417.28;;;13.01;49.98
56400;BME280;42298;53.638;9.876;2023-01-27T04:54:01;102414.19;;;13.12;50.14
56400;BME280;42298;53.638;9.876;2023-01-27T04:56:34;102421.56;;;13.22;49.97
56400;BME280;42298;53.638;9.876;2023-01-27T04:59:03;102424.47;;;12.97;50.34
56400;BME280;42298;53.638;9.876;2023-01-27T05:01:28;102412.03;;;12.99;50.71
56400;BME280;42298;53.638;9.876;2023-01-27T05:03:54;102429.19;;;13.01;50.27
56400;BME280;42298;53.638;9.876;2023-01-27T05:06:19;102426.09;;;12.98;50.48
56400;BME280;42298;53.638;9.876;2023-01-27T05:08:46;102435.94;;;12.65;51.04
56400;BME280;42298;53.638;9.876;2023-01-27T05:11:11;102439.09;;;12.34;51.17
56400;BME280;42298;53.638;9.876;2023-01-27T05:13:37;102446.88;;;12.95;50.10
56400;BME280;42298;53.638;9.876;2023-01-27T05:16:17;102440.44;;;13.15;49.30
56400;BME280;42298;53.638;9.876;2023-01-27T05:18:45;102433.75;;;12.57;50.09
56400;BME280;42298;53.638;9.876;2023-01-27T05:21:13;102440.78;;;12.25;50.96
56400;BME280;42298;53.638;9.876;2023-01-27T05:23:39;102429.72;;;12.25;50.63
56400;BME280;42298;53.638;9.876;2023-01-27T05:28:37;102431.31;;;13.14;49.07
56400;BME280;42298;53.638;9.876;2023-01-27T05:31:11;102421.66;;;13.07;49.04
56400;BME280;42298;53.638;9.876;2023-01-27T05:33:38;102427.50;;;12.95;49.46
56400;BME280;42298;53.638;9.876;2023-01-27T05:36:05;102428.72;;;12.79;49.08
56400;BME280;42298;53.638;9.876;2023-01-27T05:38:31;102441.88;;;13.02;48.84
56400;BME280;42298;53.638;9.876;2023-01-27T05:41:01;102436.38;;;12.92;49.54
56400;BME280;42298;53.638;9.876;2023-01-27T05:43:28;102435.03;;;12.90;49.24
56400;BME280;42298;53.638;9.876;2023-01-27T05:46:21;102432.56;;;12.83;49.67
56400;BME280;42298;53.638;9.876;2023-01-27T05:48:47;102439.56;;;12.66;50.28
56400;BME280;42298;53.638;9.876;2023-01-27T05:51:14;102442.47;;;12.89;49.60
56400;BME280;42298;53.638;9.876;2023-01-27T05:53:40;102440.69;;;12.50;49.35
56400;BME280;42298;53.638;9.876;2023-01-27T05:56:06;102454.78;;;12.48;49.80
56400;BME280;42298;53.638;9.876;2023-01-27T05:58:34;102450.63;;;12.61;49.76
56400;BME280;42298;53.638;9.876;2023-01-27T06:01:14;102458.56;;;12.72;49.10
56400;BME280;42298;53.638;9.876;2023-01-27T06:03:40;102459.38;;;12.83;48.75
56400;BME280;42298;53.638;9.876;2023-01-27T06:06:07;102468.56;;;12.73;49.30
56400;BME280;42298;53.638;9.876;2023-01-27T06:08:34;102479.28;;;12.85;49.25
56400;BME280;42298;53.638;9.876;2023-01-27T06:10:59;102464.94;;;12.73;48.88
56400;BME280;42298;53.638;9.876;2023-01-27T06:13:25;102461.31;;;12.82;48.75
56400;BME280;42298;53.638;9.876;2023-01-27T06:15:51;102464.44;;;12.56;48.88
56400;BME280;42298;53.638;9.876;2023-01-27T06:18:18;102473.19;;;12.83;49.18
56400;BME280;42298;53.638;9.876;2023-01-27T06:20:44;102469.34;;;12.74;48.61
56400;BME280;42298;53.638;9.876;2023-01-27T06:23:10;102473.53;;;12.71;48.88
56400;BME280;42298;53.638;9.876;2023-01-27T06:25:47;102487.34;;;12.76;48.89
56400;BME280;42298;53.638;9.876;2023-01-27T06:28:14;102488.78;;;12.54;49.24
56400;BME280;42298;53.638;9.876;2023-01-27T06:30:40;102489.63;;;12.44;49.17
56400;BME280;42298;53.638;9.876;2023-01-27T06:33:12;102501.81;;;12.28;50.12
56400;BME280;42298;53.638;9.876;2023-01-27T06:35:40;102512.31;;;12.11;51.08
56400;BME280;42298;53.638;9.876;2023-01-27T06:38:07;102504.59;;;11.98;51.24
56400;BME280;42298;53.638;9.876;2023-01-27T06:40:34;102513.97;;;12.32;51.12
56400;BME280;42298;53.638;9.876;2023-01-27T06:43:00;102513.44;;;11.95;52.13
56400;BME280;42298;53.638;9.876;2023-01-27T06:45:25;102512.63;;;11.90;51.68
56400;BME280;42298;53.638;9.876;2023-01-27T06:47:54;102517.03;;;12.21;51.63
56400;BME280;42298;53.638;9.876;2023-01-27T06:50:21;102510.66;;;12.40;51.41
56400;BME280;42298;53.638;9.876;2023-01-27T06:52:46;102516.75;;;12.17;51.20
56400;BME280;42298;53.638;9.876;2023-01-27T06:55:12;102531.94;;;12.30;51.10
56400;BME280;42298;53.638;9.876;2023-01-27T06:57:37;102514.00;;;12.27;51.00
56400;BME280;42298;53.638;9.876;2023-01-27T07:00:03;102537.13;;;12.56;51.23
56400;BME280;42298;53.638;9.876;2023-01-27T07:02:28;102536.50;;;12.89;49.54
56400;BME280;42298;53.638;9.876;2023-01-27T07:04:54;102539.03;;;12.81;50.21
56400;BME280;42298;53.638;9.876;2023-01-27T07:07:19;102542.16;;;12.29;50.92
56400;BME280;42298;53.638;9.876;2023-01-27T07:09:44;102538.31;;;12.10;51.01
56400;BME280;42298;53.638;9.876;2023-01-27T07:12:09;102544.91;;;11.89;52.02
56400;BME280;42298;53.638;9.876;2023-01-27T07:14:35;102554.59;;;12.07;51.21
56400;BME280;42298;53.638;9.876;2023-01-27T07:17:00;102573.66;;;12.03;51.59
56400;BME280;42298;53.638;9.876;2023-01-27T07:19:25;102560.38;;;12.20;52.05
56400;BME280;42298;53.638;9.876;2023-01-27T07:21:50;102573.38;;;12.45;50.39
56400;BME280;42298;53.638;9.876;2023-01-27T07:24:16;102576.41;;;12.23;50.48
56400;BME280;42298;53.638;9.876;2023-01-27T07:26:41;102578.63;;;12.16;50.92
56400;BME280;42298;53.638;9.876;2023-01-27T07:29:13;102582.19;;;12.72;50.02
56400;BME280;42298;53.638;9.876;2023-01-27T07:31:38;102583.84;;;12.63;50.03
56400;BME280;42298;53.638;9.876;2023-01-27T07:34:04;102588.81;;;12.76;49.58
56400;BME280;42298;53.638;9.876;2023-01-27T07:36:29;102586.88;;;12.66;49.88
56400;BME280;42298;53.638;9.876;2023-01-27T07:38:54;102578.88;;;12.60;49.92
56400;BME280;42298;53.638;9.876;2023-01-27T07:41:20;102597.94;;;12.66;50.27
56400;BME280;42298;53.638;9.876;2023-01-27T07:43:47;102575.03;;;12.46;50.45
56400;BME280;42298;53.638;9.876;2023-01-27T07:46:12;102583.59;;;12.04;51.12
56400;BME280;42298;53.638;9.876;2023-01-27T07:48:37;102583.03;;;12.02;51.43
56400;BME280;42298;53.638;9.876;2023-01-27T07:51:03;102577.53;;;12.12;51.24
56400;BME280;42298;53.638;9.876;2023-01-27T07:53:28;102572.81;;;12.38;50.33
56400;BME280;42298;53.638;9.876;2023-01-27T07:55:53;102594.94;;;12.33;51.03
56400;BME280;42298;53.638;9.876;2023-01-27T07:58:19;102602.69;;;12.26;51.05
56400;BME280;42298;53.638;9.876;2023-01-27T08:00:44;102593.53;;;12.35;51.29
56400;BME280;42298;53.638;9.876;2023-01-27T08:03:20;102593.50;;;12.85;50.25
56400;BME280;42298;53.638;9.876;2023-01-27T08:05:46;102596.00;;;12.72;50.46
56400;BME280;42298;53.638;9.876;2023-01-27T08:08:11;102602.91;;;12.54;50.82
56400;BME280;42298;53.638;9.876;2023-01-27T08:10:37;102603.47;;;12.66;50.99
56400;BME280;42298;53.638;9.876;2023-01-27T08:13:02;102597.94;;;12.66;50.17
56400;BME280;42298;53.638;9.876;2023-01-27T08:15:29;102602.31;;;12.87;50.01
56400;BME280;42298;53.638;9.876;2023-01-27T08:17:55;102612.56;;;12.82;50.61
56400;BME280;42298;53.638;9.876;2023-01-27T08:20:22;102609.25;;;12.80;50.33
56400;BME280;42298;53.638;9.876;2023-01-27T08:22:47;102609.56;;;12.73;50.15
56400;BME280;42298;53.638;9.876;2023-01-27T08:25:13;102624.75;;;12.61;50.60
56400;BME280;42298;53.638;9.876;2023-01-27T08:27:38;102615.06;;;12.63;51.30
56400;BME280;42298;53.638;9.876;2023-01-27T08:30:04;102611.47;;;12.78;51.01
56400;BME280;42298;53.638;9.876;2023-01-27T08:32:29;102616.75;;;12.59;50.92
56400;BME280;42298;53.638;9.876;2023-01-27T08:34:54;102619.50;;;12.64;51.09
56400;BME280;42298;53.638;9.876;2023-01-27T08:37:20;102630.56;;;12.49;50.84
56400;BME280;42298;53.638;9.876;2023-01-27T08:39:45;102618.66;;;12.19;51.17
56400;BME280;42298;53.638;9.876;2023-01-27T08:42:10;102629.47;;;12.30;51.45
56400;BME280;42298;53.638;9.876;2023-01-27T08:44:37;102628.06;;;12.38;51.09
56400;BME280;42298;53.638;9.876;2023-01-27T08:47:02;102631.94;;;12.37;51.17
56400;BME280;42298;53.638;9.876;2023-01-27T08:49:27;102637.19;;;12.53;51.33
56400;BME280;42298;53.638;9.876;2023-01-27T08:51:53;102626.97;;;12.34;51.32
56400;BME280;42298;53.638;9.876;2023-01-27T08:54:18;102623.94;;;12.45;51.41
56400;BME280;42298;53.638;9.876;2023-01-27T08:56:43;102627.25;;;12.62;50.62
56400;BME280;42298;53.638;9.876;2023-01-27T08:59:08;102624.75;;;12.11;50.91
56400;BME280;42298;53.638;9.876;2023-01-27T09:01:34;102627.78;;;12.09;51.60
56400;BME280;42298;53.638;9.876;2023-01-27T09:03:59;102636.94;;;12.45;51.44
56400;BME280;42298;53.638;9.876;2023-01-27T09:06:24;102630.28;;;12.46;50.27
56400;BME280;42298;53.638;9.876;2023-01-27T09:08:50;102638.84;;;12.19;50.93
56400;BME280;42298;53.638;9.876;2023-01-27T09:11:38;102637.47;;;12.37;51.00
56400;BME280;42298;53.638;9.876;2023-01-27T09:14:05;102652.66;;;12.09;51.55
56400;BME280;42298;53.638;9.876;2023-01-27T09:16:30;102649.59;;;11.96;51.91
56400;BME280;42298;53.638;9.876;2023-01-27T09:18:56;102655.94;;;11.91;51.94
56400;BME280;42298;53.638;9.876;2023-01-27T09:21:22;102661.78;;;12.15;51.79
56400;BME280;42298;53.638;9.876;2023-01-27T09:23:48;102668.16;;;12.30;51.78
56400;BME280;42298;53.638;9.876;2023-01-27T09:26:13;102672.03;;;12.44;50.84
56400;BME280;42298;53.638;9.876;2023-01-27T09:28:40;102675.59;;;12.50;50.86
56400;BME280;42298;53.638;9.876;2023-01-27T09:31:05;102674.22;;;12.42;50.86
56400;BME280;42298;53.638;9.876;2023-01-27T09:33:34;102672.88;;;12.45;50.86
56400;BME280;42298;53.638;9.876;2023-01-27T09:36:04;102673.41;;;12.47;50.93
56400;BME280;42298;53.638;9.876;2023-01-27T09:38:33;102667.88;;;12.62;50.53
56400;BME280;42298;53.638;9.876;2023-01-27T09:47:28;102675.63;;;12.40;50.67
56400;BME280;42298;53.638;9.876;2023-01-27T09:53:00;102666.72;;;12.13;50.95
56400;BME280;42298;53.638;9.876;2023-01-27T09:55:51;102674.22;;;12.22;50.92
56400;BME280;42298;53.638;9.876;2023-01-27T09:58:44;102666.47;;;12.14;50.99
56400;BME280;42298;53.638;9.876;2023-01-27T10:01:28;102661.47;;;12.01;51.40
56400;BME280;42298;53.638;9.876;2023-01-27T10:12:36;102673.06;;;12.08;51.25
56400;BME280;42298;53.638;9.876;2023-01-27T10:27:17;102670.56;;;11.97;51.43
56400;BME280;42298;53.638;9.876;2023-01-27T10:32:29;102674.94;;;11.83;51.63
56400;BME280;42298;53.638;9.876;2023-01-27T10:35:21;102663.44;;;12.21;50.99
56400;BME280;42298;53.638;9.876;2023-01-27T10:38:09;102667.03;;;12.26;50.95
56400;BME280;42298;53.638;9.876;2023-01-27T10:43:32;102668.16;;;12.55;50.27
56400;BME280;42298;53.638;9.876;2023-01-27T10:46:28;102671.16;;;12.14;50.83
56400;BME280;42298;53.638;9.876;2023-01-27T10:48:59;102669.50;;;12.08;50.36
56400;BME280;42298;53.638;9.876;2023-01-27T10:51:33;102658.19;;;12.19;50.96
56400;BME280;42298;53.638;9.876;2023-01-27T10:54:33;102654.91;;;12.37;50.02
56400;BME280;42298;53.638;9.876;2023-01-27T10:57:09;102660.13;;;12.49;49.67
56400;BME280;42298;53.638;9.876;2023-01-27T11:00:04;102667.56;;;12.33;49.06
56400;BME280;42298;53.638;9.876;2023-01-27T11:02:37;102652.69;;;12.24;48.54
56400;BME280;42298;53.638;9.876;2023-01-27T11:05:12;102668.13;;;12.45;49.11
56400;BME280;42298;53.638;9.876;2023-01-27T11:07:59;102647.69;;;12.16;49.25
56400;BME280;42298;53.638;9.876;2023-01-27T11:10:33;102643.56;;;12.14;49.49
56400;BME280;42298;53.638;9.876;2023-01-27T11:13:01;102659.22;;;11.93;49.48
56400;BME280;42298;53.638;9.876;2023-01-27T11:15:31;102665.06;;;12.02;49.67
56400;BME280;42298;53.638;9.876;2023-01-27T11:18:03;102659.28;;;12.03;49.07
56400;BME280;42298;53.638;9.876;2023-01-27T11:20:37;102647.38;;;12.03;49.14
56400;BME280;42298;53.638;9.876;2023-01-27T11:23:21;102658.75;;;12.26;48.50
56400;BME280;42298;53.638;9.876;2023-01-27T11:34:30;102655.16;;;12.21;47.70
56400;BME280;42298;53.638;9.876;2023-01-27T11:36:57;102646.00;;;12.05;47.44
56400;BME280;42298;53.638;9.876;2023-01-27T11:39:26;102656.47;;;11.88;48.04
56400;BME280;42298;53.638;9.876;2023-01-27T11:41:54;102642.72;;;12.23;47.63
56400;BME280;42298;53.638;9.876;2023-01-27T11:44:23;102656.81;;;12.52;46.72
56400;BME280;42298;53.638;9.876;2023-01-27T11:46:51;102660.41;;;12.27;47.46
56400;BME280;42298;53.638;9.876;2023-01-27T11:49:28;102662.06;;;12.23;46.81
56400;BME280;42298;53.638;9.876;2023-01-27T11:52:05;102649.38;;;12.52;47.25
56400;BME280;42298;53.638;9.876;2023-01-27T11:54:39;102645.97;;;11.85;46.83
56400;BME280;42298;53.638;9.876;2023-01-27T11:57:16;102649.03;;;11.99;46.72
56400;BME280;42298;53.638;9.876;2023-01-27T11:59:43;102650.97;;;11.98;46.93
56400;BME280;42298;53.638;9.876;2023-01-27T12:02:21;102646.03;;;12.25;46.87
56400;BME280;42298;53.638;9.876;2023-01-27T12:07:45;102648.47;;;11.30;46.82
56400;BME280;42298;53.638;9.876;2023-01-27T12:10:25;102644.66;;;11.41;47.25
56400;BME280;42298;53.638;9.876;2023-01-27T12:12:52;102642.88;;;11.67;46.57
56400;BME280;42298;53.638;9.876;2023-01-27T12:15:17;102636.56;;;11.86;45.85
56400;BME280;42298;53.638;9.876;2023-01-27T12:17:47;102640.19;;;11.97;45.55
56400;BME280;42298;53.638;9.876;2023-01-27T12:22:55;102622.28;;;12.09;45.80
56400;BME280;42298;53.638;9.876;2023-01-27T12:25:28;102624.78;;;12.26;45.87
56400;BME280;42298;53.638;9.876;2023-01-27T12:28:04;102625.31;;;12.38;45.05
56400;BME280;42298;53.638;9.876;2023-01-27T12:30:33;102642.72;;;12.48;45.92
56400;BME280;42298;53.638;9.876;2023-01-27T12:32:59;102627.25;;;12.42;44.93
56400;BME280;42298;53.638;9.876;2023-01-27T12:35:35;102629.72;;;12.19;45.38
56400;BME280;42298;53.638;9.876;2023-01-27T12:38:13;102640.47;;;12.00;45.57
56400;BME280;42298;53.638;9.876;2023-01-27T12:40:42;102626.13;;;12.08;45.68
56400;BME280;42298;53.638;9.876;2023-01-27T12:45:34;102642.09;;;11.86;45.24
56400;BME280;42298;53.638;9.876;2023-01-27T12:50:36;102644.69;;;12.48;45.45
56400;BME280;42298;53.638;9.876;2023-01-27T12:53:10;102643.00;;;12.17;43.96
56400;BME280;42298;53.638;9.876;2023-01-27T12:58:58;102643.22;;;12.05;44.73
56400;BME280;42298;53.638;9.876;2023-01-27T13:01:27;102631.88;;;11.92;45.27
56400;BME280;42298;53.638;9.876;2023-01-27T13:04:00;102635.97;;;11.69;45.15
56400;BME280;42298;53.638;9.876;2023-01-27T13:06:54;102634.09;;;11.90;44.22
56400;BME280;42298;53.638;9.876;2023-01-27T13:09:29;102633.56;;;11.98;44.00
56400;BME280;42298;53.638;9.876;2023-01-27T13:12:00;102632.47;;;12.09;44.60
56400;BME280;42298;53.638;9.876;2023-01-27T13:14:33;102625.06;;;12.24;44.48
56400;BME280;42298;53.638;9.876;2023-01-27T13:16:59;102639.41;;;12.36;43.90
56400;BME280;42298;53.638;9.876;2023-01-27T13:19:38;102617.84;;;12.48;43.34
56400;BME280;42298;53.638;9.876;2023-01-27T13:22:12;102620.59;;;11.98;43.15
56400;BME280;42298;53.638;9.876;2023-01-27T13:24:41;102623.84;;;11.80;42.83
56400;BME280;42298;53.638;9.876;2023-01-27T13:27:12;102611.34;;;11.57;43.09
56400;BME280;42298;53.638;9.876;2023-01-27T13:29:39;102613.56;;;11.60;43.54
56400;BME280;42298;53.638;9.876;2023-01-27T13:32:17;102616.19;;;11.30;43.62
56400;BME280;42298;53.638;9.876;2023-01-27T13:34:51;102623.88;;;11.90;43.89
56400;BME280;42298;53.638;9.876;2023-01-27T13:37:21;102621.13;;;12.05;43.35
56400;BME280;42298;53.638;9.876;2023-01-27T13:46:13;102623.94;;;12.25;42.42
56400;BME280;42298;53.638;9.876;2023-01-27T13:48:47;102617.28;;;12.56;42.63
56400;BME280;42298;53.638;9.876;2023-01-27T13:51:17;102605.97;;;12.58;42.81
56400;BME280;42298;53.638;9.876;2023-01-27T13:53:44;102608.16;;;12.56;42.46
56400;BME280;42298;53.638;9.876;2023-01-27T13:58:49;102618.66;;;12.44;42.17
56400;BME280;42298;53.638;9.876;2023-01-27T14:07:02;102622.81;;;12.06;42.32
56400;BME280;42298;53.638;9.876;2023-01-27T14:17:45;102617.31;;;12.31;41.95
56400;BME280;42298;53.638;9.876;2023-01-27T14:22:46;102625.03;;;12.39;41.55
56400;BME280;42298;53.638;9.876;2023-01-27T14:25:31;102615.63;;;12.10;40.87
56400;BME280;42298;53.638;9.876;2023-01-27T14:30:36;102621.97;;;12.01;41.53
56400;BME280;42298;53.638;9.876;2023-01-27T14:38:32;102625.59;;;12.46;41.38